Guerreiro Do Mar — CUGH4 — position and weather

sailwx.info

Track history (hours):
 
Tides and Currents Weather Stations Pressure Air Temp Water Temp Dewpoint Dewpoint Depression Visibility Wind Speed Wind Dir Waves Ship Positions

Guerreiro Do Mar

Last reported at 2018-Jun-22 21:50 UTC. Time now 2018-Jun-25 15:48 UTC.
Position N 39°13' W 009°24'.

Type: Fishing. MMSI: 263314000.

Date/timePositionNaut miles runAvg speedWind from/ knotsBaromVisibWave heightAir tempDewpointWater temp
2018-Jun-22 21:50N 39°13' W 009°24'3 8.9
2018-Jun-22 21:30N 39°10' W 009°25'2 4.0
2018-Jun-22 21:00N 39°08' W 009°25'0 0.3
2018-Jun-22 20:30N 39°08' W 009°25'2 3.6
2018-Jun-22 20:00N 39°08' W 009°28'5 0.9
2018-Jun-22 14:12N 39°12' W 009°23'6 0.4
2018-Jun-21 21:47N 39°15' W 009°29'3 8.8
2018-Jun-21 21:29N 39°13' W 009°32'0 0.8
2018-Jun-21 21:00N 39°13' W 009°32'0 0.2
2018-Jun-21 20:30N 39°13' W 009°32'2 4.7
2018-Jun-21 19:59N 39°15' W 009°32'8 3.1
2018-Jun-21 17:29N 39°13' W 009°22'0 0.6
2018-Jun-21 16:46N 39°13' W 009°22'3 0.2
2018-Jun-20 22:27N 39°15' W 009°24'4 8.0
2018-Jun-20 22:00N 39°12' W 009°25'4 8.2
2018-Jun-20 21:30N 39°08' W 009°26'1 1.5
2018-Jun-20 21:00N 39°07' W 009°26'0 0.1
2018-Jun-20 20:30N 39°07' W 009°26'2 3.4
2018-Jun-20 20:00N 39°07' W 009°28'2 4.1
2018-Jun-20 19:30N 39°09' W 009°27'5 0.2
2018-Jun-19 22:04N 39°14' W 009°24'1 8.4
2018-Jun-19 21:55N 39°13' W 009°25'3 8.2
2018-Jun-19 21:30N 39°10' W 009°26'3 6.3
2018-Jun-19 21:00N 39°07' W 009°27'0 0.2
2018-Jun-19 20:30N 39°07' W 009°27'0 0.5
2018-Jun-19 20:00N 39°07' W 009°26'2 3.3
2018-Jun-19 19:30N 39°08' W 009°27'3 4.5
2018-Jun-19 18:45N 39°11' W 009°25'0 0.1
2018-Jun-19 18:26N 39°11' W 009°25'0 0.1
2018-Jun-19 17:59N 39°11' W 009°25'0 0.0
2018-Jun-19 17:30N 39°11' W 009°25'0 0.0
2018-Jun-19 17:00N 39°11' W 009°25'0 0.0
2018-Jun-19 16:22N 39°11' W 009°25'1 1.7
2018-Jun-19 15:59N 39°11' W 009°25'2 2.7
2018-Jun-19 15:10N 39°13' W 009°25'0 2.4
2018-Jun-19 14:59N 39°13' W 009°25'2 5.0
2018-Jun-19 14:30N 39°13' W 009°22'3 0.1
2018-Jun-18 14:12N 39°14' W 009°25'2 7.9
2018-Jun-18 14:00N 39°12' W 009°24'  
2018-Jun-14 22:13N 39°14' W 009°25'3 8.0
2018-Jun-14 21:53N 39°11' W 009°26'3 7.9
2018-Jun-14 21:30N 39°08' W 009°27'2 4.3
2018-Jun-14 21:00N 39°06' W 009°28'0 0.7
2018-Jun-14 20:30N 39°07' W 009°28'1 1.5
2018-Jun-14 19:58N 39°07' W 009°27'4 0.2
2018-Jun-13 21:29N 39°10' W 009°24'2 1.9
2018-Jun-13 20:10N 39°08' W 009°25'0 1.6
2018-Jun-13 19:59N 39°08' W 009°26'7 0.3
2018-Jun-12 22:29N 39°15' W 009°23'4 7.7
2018-Jun-12 22:00N 39°11' W 009°25'  
Track history (hours):
 
Tides and Currents Weather Stations Pressure Air Temp Water Temp Dewpoint Dewpoint Depression Visibility Wind Speed Wind Dir Waves Ship Positions

Guerreiro Do Mar

Last reported at 2018-Jun-22 21:50 UTC. Time now 2018-Jun-25 15:48 UTC.
Position N 39°13' W 009°24'.

Type: Fishing. MMSI: 263314000.

Date/timePositionNaut miles runAvg speedWind from/ knotsBaromVisibWave heightAir tempDewpointWater temp
2018-Jun-22 21:50N 39°13' W 009°24'3 8.9
2018-Jun-22 21:30N 39°10' W 009°25'2 4.0
2018-Jun-22 21:00N 39°08' W 009°25'0 0.3
2018-Jun-22 20:30N 39°08' W 009°25'2 3.6
2018-Jun-22 20:00N 39°08' W 009°28'5 0.9
2018-Jun-22 14:12N 39°12' W 009°23'6 0.4
2018-Jun-21 21:47N 39°15' W 009°29'3 8.8
2018-Jun-21 21:29N 39°13' W 009°32'0 0.8
2018-Jun-21 21:00N 39°13' W 009°32'0 0.2
2018-Jun-21 20:30N 39°13' W 009°32'2 4.7
2018-Jun-21 19:59N 39°15' W 009°32'8 3.1
2018-Jun-21 17:29N 39°13' W 009°22'0 0.6
2018-Jun-21 16:46N 39°13' W 009°22'3 0.2
2018-Jun-20 22:27N 39°15' W 009°24'4 8.0
2018-Jun-20 22:00N 39°12' W 009°25'4 8.2
2018-Jun-20 21:30N 39°08' W 009°26'1 1.5
2018-Jun-20 21:00N 39°07' W 009°26'0 0.1
2018-Jun-20 20:30N 39°07' W 009°26'2 3.4
2018-Jun-20 20:00N 39°07' W 009°28'2 4.1
2018-Jun-20 19:30N 39°09' W 009°27'5 0.2
2018-Jun-19 22:04N 39°14' W 009°24'1 8.4
2018-Jun-19 21:55N 39°13' W 009°25'3 8.2
2018-Jun-19 21:30N 39°10' W 009°26'3 6.3
2018-Jun-19 21:00N 39°07' W 009°27'0 0.2
2018-Jun-19 20:30N 39°07' W 009°27'0 0.5
2018-Jun-19 20:00N 39°07' W 009°26'2 3.3
2018-Jun-19 19:30N 39°08' W 009°27'3 4.5
2018-Jun-19 18:45N 39°11' W 009°25'0 0.1
2018-Jun-19 18:26N 39°11' W 009°25'0 0.1
2018-Jun-19 17:59N 39°11' W 009°25'0 0.0
2018-Jun-19 17:30N 39°11' W 009°25'0 0.0
2018-Jun-19 17:00N 39°11' W 009°25'0 0.0
2018-Jun-19 16:22N 39°11' W 009°25'1 1.7
2018-Jun-19 15:59N 39°11' W 009°25'2 2.7
2018-Jun-19 15:10N 39°13' W 009°25'0 2.4
2018-Jun-19 14:59N 39°13' W 009°25'2 5.0
2018-Jun-19 14:30N 39°13' W 009°22'3 0.1
2018-Jun-18 14:12N 39°14' W 009°25'2 7.9
2018-Jun-18 14:00N 39°12' W 009°24'  
2018-Jun-14 22:13N 39°14' W 009°25'3 8.0
2018-Jun-14 21:53N 39°11' W 009°26'3 7.9
2018-Jun-14 21:30N 39°08' W 009°27'2 4.3
2018-Jun-14 21:00N 39°06' W 009°28'0 0.7
2018-Jun-14 20:30N 39°07' W 009°28'1 1.5
2018-Jun-14 19:58N 39°07' W 009°27'4 0.2
2018-Jun-13 21:29N 39°10' W 009°24'2 1.9
2018-Jun-13 20:10N 39°08' W 009°25'0 1.6
2018-Jun-13 19:59N 39°08' W 009°26'7 0.3
2018-Jun-12 22:29N 39°15' W 009°23'4 7.7
2018-Jun-12 22:00N 39°11' W 009°25'  

Dump ship's entire track history